Time;durP1;ratioP1;P1;durP2;ratioP2;P2;SDS_P1;SDS_P2;PMS_P1;PMS_P2;Temp;Humidity;BMP_temperature;BMP_pressure;BME280_temperature;BME280_humidity;BME280_pressure;Samples;Min_cycle;Max_cycle;Signal;HPM_P1;HPM_P2
2024/01/18 00:01:31;;;;;;;1.60;0.40;;;0.30;99.90;;;;;;5061196;28;20554;-70
2024/01/18 00:03:57;;;;;;;2.50;0.30;;;0.30;99.90;;;;;;5059704;28;20136;-70
2024/01/18 00:06:23;;;;;;;1.38;0.40;;;0.20;99.90;;;;;;5061521;28;20032;-70
2024/01/18 00:08:48;;;;;;;1.30;0.37;;;0.30;99.90;;;;;;5066513;28;20048;-70
2024/01/18 00:11:14;;;;;;;1.67;0.40;;;0.30;99.90;;;;;;5048921;28;20417;-70
2024/01/18 00:13:46;;;;;;;2.17;0.65;;;0.20;99.90;;;;;;5042858;28;20139;-70
2024/01/18 00:16:11;;;;;;;6.80;0.52;;;0.20;99.90;;;;;;5061646;28;20602;-70
2024/01/18 00:18:37;;;;;;;2.00;0.40;;;0.20;99.90;;;;;;5027463;28;20052;-70
2024/01/18 00:21:04;;;;;;;9.13;0.80;;;0.20;99.90;;;;;;5041777;28;20044;-70
2024/01/18 00:23:31;;;;;;;0.17;0.10;;;0.20;99.90;;;;;;5045175;28;20048;-70
2024/01/18 00:25:56;;;;;;;1.65;0.43;;;0.20;99.90;;;;;;5063413;28;20291;-70
2024/01/18 00:28:22;;;;;;;10.37;0.70;;;0.20;99.90;;;;;;5065161;28;20047;-70
2024/01/18 00:30:56;;;;;;;1.97;0.33;;;0.20;99.90;;;;;;5049749;28;20032;-70
2024/01/18 00:33:22;;;;;;;1.40;0.38;;;0.20;99.90;;;;;;5052834;28;20079;-70
2024/01/18 00:35:48;;;;;;;3.87;0.30;;;0.20;99.90;;;;;;5046166;28;20064;-69
2024/01/18 00:38:14;;;;;;;1.63;0.20;;;0.20;99.90;;;;;;5062509;28;20037;-70
2024/01/18 00:40:39;;;;;;;1.07;0.40;;;0.20;99.90;;;;;;5050885;28;20135;-70
2024/01/18 00:43:05;;;;;;;3.83;0.80;;;0.20;99.90;;;;;;5051456;28;20037;-70
2024/01/18 00:45:31;;;;;;;1.60;0.50;;;0.20;99.90;;;;;;5051142;28;20129;-70
2024/01/18 00:47:56;;;;;;;2.37;0.60;;;0.10;99.90;;;;;;5070329;28;20733;-70
2024/01/18 00:50:22;;;;;;;2.20;0.40;;;0.10;99.90;;;;;;5073846;28;20035;-70
2024/01/18 00:52:47;;;;;;;1.53;0.73;;;0.10;99.90;;;;;;5053920;28;20051;-70
2024/01/18 00:55:13;;;;;;;4.37;0.33;;;0.10;99.90;;;;;;5039844;28;20068;-70
2024/01/18 00:57:39;;;;;;;2.47;0.40;;;0.10;99.90;;;;;;5053494;28;20070;-70
2024/01/18 01:00:05;;;;;;;1.83;0.63;;;0.10;99.90;;;;;;5044084;28;20045;-70
2024/01/18 01:02:30;;;;;;;1.75;0.47;;;0.00;99.90;;;;;;5049320;28;20044;-70
2024/01/18 01:04:56;;;;;;;4.83;0.73;;;0.00;99.90;;;;;;5044409;28;20451;-70
2024/01/18 01:07:22;;;;;;;3.20;0.70;;;-0.10;99.90;;;;;;5071842;28;20056;-70
2024/01/18 01:09:47;;;;;;;4.90;0.73;;;-0.10;99.90;;;;;;5054869;28;20032;-70
2024/01/18 01:12:13;;;;;;;3.23;1.00;;;-0.10;99.90;;;;;;5052553;28;20071;-70
2024/01/18 01:14:39;;;;;;;1.13;0.50;;;-0.10;99.90;;;;;;5059969;28;20504;-70
2024/01/18 01:17:04;;;;;;;0.75;0.20;;;-0.20;99.90;;;;;;5068606;28;20094;-70
2024/01/18 01:19:30;;;;;;;0.97;0.30;;;-0.20;99.90;;;;;;5068185;28;20048;-70
2024/01/18 01:21:55;;;;;;;2.53;0.30;;;-0.20;99.90;;;;;;5052702;28;20469;-70
2024/01/18 01:24:21;;;;;;;4.90;0.70;;;-0.20;99.90;;;;;;5063348;28;20035;-70
2024/01/18 01:26:49;;;;;;;5.23;0.40;;;-0.30;99.90;;;;;;5047790;28;20504;-70
2024/01/18 01:29:15;;;;;;;2.85;0.30;;;-0.30;99.90;;;;;;5066156;28;20032;-70
2024/01/18 01:31:41;;;;;;;0.52;0.17;;;-0.30;99.90;;;;;;5049682;28;20449;-69
2024/01/18 01:34:06;;;;;;;0.30;0.10;;;-0.40;99.90;;;;;;5050584;28;20048;-70
2024/01/18 01:36:35;;;;;;;1.60;0.10;;;-0.50;99.90;;;;;;5049426;28;20089;-70
2024/01/18 01:39:00;;;;;;;1.05;0.40;;;-0.50;99.90;;;;;;5068694;28;20041;-70
2024/01/18 01:41:26;;;;;;;2.03;0.47;;;-0.50;99.90;;;;;;5048647;28;20400;-70
2024/01/18 01:44:01;;;;;;;3.00;0.47;;;-0.50;99.90;;;;;;5043166;28;20047;-77
2024/01/18 01:46:27;;;;;;;1.05;0.40;;;-0.60;99.90;;;;;;5049732;28;20089;-73
2024/01/18 01:49:05;;;;;;;1.27;0.35;;;-0.60;99.90;;;;;;5052051;28;20241;-74
2024/01/18 01:51:42;;;;;;;4.63;0.85;;;-0.60;99.90;;;;;;5050809;28;20040;-70
2024/01/18 01:54:09;;;;;;;2.30;0.55;;;-0.70;99.90;;;;;;5059667;28;20044;-70
2024/01/18 01:56:36;;;;;;;3.78;0.98;;;-0.70;99.90;;;;;;5054214;28;20045;-70
2024/01/18 01:59:03;;;;;;;2.33;0.60;;;-0.70;99.90;;;;;;5062698;28;20095;-70
2024/01/18 02:01:29;;;;;;;3.65;0.82;;;-0.70;99.90;;;;;;5039762;28;20067;-70
2024/01/18 02:03:57;;;;;;;1.23;0.43;;;-0.70;99.90;;;;;;5058833;28;20087;-70
2024/01/18 02:06:24;;;;;;;3.63;0.67;;;-0.80;99.90;;;;;;5065533;28;20069;-70
2024/01/18 02:08:50;;;;;;;3.50;0.68;;;-0.80;99.90;;;;;;5059817;28;20087;-70
2024/01/18 02:11:16;;;;;;;1.03;0.37;;;-0.80;99.90;;;;;;5068262;28;20036;-70
2024/01/18 02:13:42;;;;;;;4.57;0.60;;;-0.80;99.90;;;;;;5039648;28;20044;-70
2024/01/18 02:16:09;;;;;;;1.45;0.55;;;-0.80;99.90;;;;;;5028510;28;20317;-70
2024/01/18 02:18:35;;;;;;;1.17;0.43;;;-0.80;99.90;;;;;;5037525;28;20048;-70
2024/01/18 02:21:05;;;;;;;3.63;1.08;;;-0.80;99.90;;;;;;5046907;28;20056;-70
2024/01/18 02:23:31;;;;;;;1.38;0.60;;;-0.90;99.90;;;;;;5045846;28;20056;-70
2024/01/18 02:25:57;;;;;;;3.25;0.50;;;-0.90;99.90;;;;;;5044766;28;20045;-69
2024/01/18 02:28:25;;;;;;;1.97;0.80;;;-0.90;99.90;;;;;;5059445;28;20123;-70
2024/01/18 02:30:50;;;;;;;1.08;0.40;;;-0.90;99.90;;;;;;5060713;28;20039;-70
2024/01/18 02:33:16;;;;;;;2.43;0.87;;;-0.90;99.90;;;;;;5054600;28;20036;-70
2024/01/18 02:35:42;;;;;;;1.23;0.60;;;-0.90;99.90;;;;;;5056377;28;20041;-70
2024/01/18 02:38:07;;;;;;;4.43;0.77;;;-0.90;99.90;;;;;;5057605;28;20067;-70
2024/01/18 02:40:38;;;;;;;3.40;0.47;;;-0.90;99.90;;;;;;5046559;28;20051;-70
2024/01/18 02:43:03;;;;;;;0.65;0.38;;;-0.90;99.90;;;;;;5065973;28;20050;-69
2024/01/18 02:45:29;;;;;;;1.60;0.30;;;-0.90;99.90;;;;;;5060039;28;20408;-70
2024/01/18 02:47:55;;;;;;;2.97;0.30;;;-0.90;99.90;;;;;;5061680;28;20142;-69
2024/01/18 02:50:23;;;;;;;3.33;0.20;;;-0.90;99.90;;;;;;5043189;28;20128;-70
2024/01/18 02:52:49;;;;;;;8.20;0.50;;;-0.90;99.90;;;;;;5054579;28;20039;-69
2024/01/18 02:55:17;;;;;;;1.73;0.13;;;-0.90;99.90;;;;;;5057819;28;20041;-69
2024/01/18 02:57:45;;;;;;;2.80;0.43;;;-0.90;99.90;;;;;;5048639;28;20126;-69
2024/01/18 03:00:14;;;;;;;1.48;0.45;;;-0.90;99.90;;;;;;5037221;28;20133;-69
2024/01/18 03:02:39;;;;;;;1.15;0.40;;;-0.90;99.90;;;;;;5040164;28;20097;-69
2024/01/18 03:05:05;;;;;;;3.17;0.70;;;-1.00;99.90;;;;;;5051906;28;20052;-69
2024/01/18 03:07:33;;;;;;;1.35;0.40;;;-1.00;99.90;;;;;;5048489;28;20530;-69
2024/01/18 03:10:01;;;;;;;4.75;0.40;;;-1.00;99.90;;;;;;5056454;28;20049;-69
2024/01/18 03:12:26;;;;;;;0.60;0.22;;;-1.00;99.90;;;;;;5047921;28;20067;-69
2024/01/18 03:14:52;;;;;;;1.60;0.30;;;-1.00;99.90;;;;;;5042734;28;20049;-70
2024/01/18 03:17:18;;;;;;;0.70;0.30;;;-1.00;99.90;;;;;;5039246;28;20147;-69
2024/01/18 03:19:43;;;;;;;1.73;0.70;;;-1.00;99.90;;;;;;5061581;28;20044;-69
2024/01/18 03:22:09;;;;;;;0.30;0.20;;;-1.00;99.90;;;;;;5066235;28;20155;-70
2024/01/18 03:24:34;;;;;;;0.97;0.30;;;-0.90;99.90;;;;;;5045007;28;20913;-69
2024/01/18 03:27:00;;;;;;;1.13;0.30;;;-0.90;99.90;;;;;;5061351;28;20055;-69
2024/01/18 03:29:26;;;;;;;1.60;0.50;;;-0.90;99.90;;;;;;5046002;28;20040;-69
2024/01/18 03:31:51;;;;;;;1.23;0.53;;;-0.90;99.90;;;;;;5063680;28;20098;-69
2024/01/18 03:34:19;;;;;;;0.97;0.30;;;-0.90;99.90;;;;;;5054490;28;20052;-69
2024/01/18 03:36:45;;;;;;;1.58;0.30;;;-0.80;99.90;;;;;;5064718;28;20055;-69
2024/01/18 03:39:11;;;;;;;1.70;0.27;;;-0.80;99.90;;;;;;5027751;28;20045;-69
2024/01/18 03:41:36;;;;;;;1.33;0.40;;;-0.70;99.90;;;;;;5064380;28;20122;-69
2024/01/18 03:44:02;;;;;;;0.10;0.10;;;-0.70;99.90;;;;;;5038712;28;20119;-69
2024/01/18 03:46:28;;;;;;;2.57;0.40;;;-0.50;99.90;;;;;;5043670;28;20040;-69
2024/01/18 03:48:53;;;;;;;0.70;0.40;;;-0.40;99.90;;;;;;5038043;28;20048;-69
2024/01/18 03:51:19;;;;;;;7.07;0.35;;;-0.30;99.90;;;;;;5032505;28;20040;-68
2024/01/18 03:53:45;;;;;;;1.67;0.57;;;-0.20;99.90;;;;;;5040527;28;20110;-69
2024/01/18 03:56:12;;;;;;;1.27;0.10;;;-0.10;99.90;;;;;;5042259;28;20328;-69
2024/01/18 03:58:38;;;;;;;1.77;0.52;;;-0.10;99.90;;;;;;5032048;28;20490;-69
2024/01/18 04:01:04;;;;;;;;;;;-0.10;99.90;;;;;;5041334;28;20052;-69
2024/01/18 04:03:29;;;;;;;1.02;0.32;;;-0.10;99.90;;;;;;5028240;28;20343;-69
2024/01/18 04:05:57;;;;;;;3.30;0.40;;;-0.10;99.90;;;;;;5049637;28;20040;-69
2024/01/18 04:08:23;;;;;;;4.03;0.20;;;-0.10;99.90;;;;;;5069895;28;20033;-69
2024/01/18 04:10:49;;;;;;;0.83;0.23;;;-0.10;99.90;;;;;;5050114;28;20530;-69
2024/01/18 04:13:15;;;;;;;4.97;0.32;;;-0.20;99.90;;;;;;5047490;28;20058;-69
2024/01/18 04:15:40;;;;;;;1.83;0.73;;;-0.20;99.90;;;;;;5044694;28;20535;-69
2024/01/18 04:18:06;;;;;;;0.50;0.10;;;-0.20;99.90;;;;;;5038619;28;20052;-69
2024/01/18 04:20:32;;;;;;;2.63;0.20;;;-0.20;99.90;;;;;;5052497;28;20062;-69
2024/01/18 04:22:58;;;;;;;1.05;0.13;;;-0.20;99.90;;;;;;5049221;28;20044;-69
2024/01/18 04:25:24;;;;;;;4.85;0.40;;;-0.20;99.90;;;;;;5045306;28;20501;-69
2024/01/18 04:27:50;;;;;;;2.03;0.10;;;-0.20;99.90;;;;;;5029839;28;20040;-68
2024/01/18 04:30:15;;;;;;;2.03;0.20;;;-0.20;99.90;;;;;;5050212;28;20051;-69
2024/01/18 04:32:41;;;;;;;0.10;0.10;;;-0.30;99.90;;;;;;5064473;28;20123;-69
2024/01/18 04:35:07;;;;;;;1.23;0.20;;;-0.30;99.90;;;;;;5045708;28;20052;-69
2024/01/18 04:37:35;;;;;;;0.85;0.20;;;-0.30;99.90;;;;;;5047652;28;20055;-69
2024/01/18 04:40:01;;;;;;;0.80;0.45;;;-0.30;99.90;;;;;;5053076;28;20123;-69
2024/01/18 04:42:29;;;;;;;4.00;0.20;;;-0.30;99.90;;;;;;5044015;28;20174;-69
2024/01/18 04:44:54;;;;;;;2.60;0.10;;;-0.30;99.90;;;;;;5061664;28;20040;-69
2024/01/18 04:47:23;;;;;;;4.88;0.57;;;-0.30;99.90;;;;;;5067079;28;20036;-69
2024/01/18 04:49:49;;;;;;;0.20;0.20;;;-0.30;99.90;;;;;;5064999;28;20039;-69
2024/01/18 04:52:14;;;;;;;1.43;0.20;;;-0.30;99.90;;;;;;5055148;28;20051;-68
2024/01/18 04:54:40;;;;;;;1.43;0.30;;;-0.40;99.90;;;;;;5066421;28;20036;-68
2024/01/18 04:57:06;;;;;;;0.80;0.50;;;-0.30;99.90;;;;;;5062322;28;20419;-68
2024/01/18 04:59:32;;;;;;;1.33;0.30;;;-0.40;99.90;;;;;;5072997;28;20078;-69
2024/01/18 05:02:00;;;;;;;1.70;0.30;;;-0.40;99.90;;;;;;5044456;28;20140;-69
2024/01/18 05:04:26;;;;;;;0.22;0.20;;;-0.40;99.90;;;;;;5034469;28;20231;-69
2024/01/18 05:06:51;;;;;;;1.52;0.40;;;-0.30;99.90;;;;;;5063114;28;20252;-68
2024/01/18 05:09:19;;;;;;;6.45;0.43;;;-0.30;99.90;;;;;;5073260;28;20523;-69
2024/01/18 05:11:46;;;;;;;0.73;0.20;;;-0.40;99.90;;;;;;5056200;28;20121;-69
2024/01/18 05:14:11;;;;;;;2.03;0.28;;;-0.40;99.90;;;;;;5047332;28;20123;-69
2024/01/18 05:16:40;;;;;;;0.57;0.20;;;-0.30;99.90;;;;;;5071673;28;20119;-69
2024/01/18 05:19:08;;;;;;;2.38;0.20;;;-0.30;99.90;;;;;;5053239;28;20536;-68
2024/01/18 05:21:34;;;;;;;0.30;0.20;;;-0.30;99.90;;;;;;5052099;28;20035;-69
2024/01/18 05:24:00;;;;;;;1.60;0.30;;;-0.30;99.90;;;;;;5042737;28;20040;-69
2024/01/18 05:26:26;;;;;;;0.73;0.23;;;-0.30;99.90;;;;;;5047292;28;20040;-68
2024/01/18 05:28:51;;;;;;;2.13;0.20;;;-0.20;99.90;;;;;;5072954;28;20040;-70
2024/01/18 05:31:17;;;;;;;1.20;0.77;;;-0.20;99.90;;;;;;5069829;28;20052;-68
2024/01/18 05:33:43;;;;;;;0.55;0.50;;;-0.20;99.90;;;;;;5063497;28;20446;-69
2024/01/18 05:36:08;;;;;;;2.73;0.40;;;-0.10;99.90;;;;;;5070448;28;20053;-69
2024/01/18 05:38:34;;;;;;;1.10;0.20;;;0.00;99.90;;;;;;5069665;28;20031;-69
2024/01/18 05:41:00;;;;;;;0.63;0.10;;;0.10;99.90;;;;;;5072749;28;20595;-69
2024/01/18 05:43:26;;;;;;;0.53;0.17;;;0.20;99.90;;;;;;5051455;28;20048;-69
2024/01/18 05:45:52;;;;;;;;;;;0.30;99.90;;;;;;5031326;28;20051;-69
2024/01/18 05:48:18;;;;;;;3.90;0.40;;;0.40;99.90;;;;;;5059361;28;20365;-68
2024/01/18 05:50:43;;;;;;;3.93;0.57;;;0.40;99.90;;;;;;5058392;28;20036;-68
2024/01/18 05:53:09;;;;;;;2.83;0.40;;;0.30;99.90;;;;;;5050842;28;20167;-68
2024/01/18 05:55:35;;;;;;;2.27;0.53;;;0.10;99.90;;;;;;5038622;28;20036;-68
2024/01/18 05:58:00;;;;;;;3.22;0.63;;;0.00;99.90;;;;;;5072480;28;20067;-68
2024/01/18 06:00:26;;;;;;;1.97;0.60;;;-0.10;99.90;;;;;;5064683;28;20041;-68
2024/01/18 06:02:52;;;;;;;2.03;0.40;;;-0.20;99.90;;;;;;5053815;28;20044;-68
2024/01/18 06:05:19;;;;;;;1.70;0.67;;;-0.20;99.90;;;;;;5058111;28;20044;-68
2024/01/18 06:07:45;;;;;;;1.95;0.82;;;-0.30;99.90;;;;;;5070781;28;20040;-68
2024/01/18 06:10:11;;;;;;;2.90;0.87;;;-0.40;99.90;;;;;;5054888;28;20047;-68
2024/01/18 06:12:36;;;;;;;3.63;0.80;;;-0.50;99.90;;;;;;5039615;28;20484;-68
2024/01/18 06:15:02;;;;;;;1.97;1.10;;;-0.50;99.90;;;;;;5058061;28;20037;-68
2024/01/18 06:17:30;;;;;;;3.60;0.95;;;-0.60;99.90;;;;;;5056709;28;20286;-70
2024/01/18 06:19:59;;;;;;;1.38;0.47;;;-0.70;99.90;;;;;;5034864;28;20047;-72
2024/01/18 06:22:25;;;;;;;2.38;0.80;;;-0.70;99.90;;;;;;5036653;28;20168;-70
2024/01/18 06:24:51;;;;;;;5.23;0.80;;;-0.70;99.90;;;;;;5036781;28;20045;-75
2024/01/18 06:27:17;;;;;;;2.40;0.70;;;-0.80;99.90;;;;;;5041157;28;20040;-74
2024/01/18 06:29:42;;;;;;;3.27;0.53;;;-0.80;99.90;;;;;;5045499;28;20452;-73
2024/01/18 06:32:08;;;;;;;1.30;0.77;;;-0.90;99.90;;;;;;5058750;28;20041;-69
2024/01/18 06:34:34;;;;;;;4.83;1.60;;;-0.90;99.90;;;;;;5048702;28;20042;-67
2024/01/18 06:37:00;;;;;;;2.13;1.17;;;-1.00;99.90;;;;;;5069101;28;20067;-68
2024/01/18 06:39:29;;;;;;;3.47;1.02;;;-1.00;99.90;;;;;;5050238;28;20047;-67
2024/01/18 06:41:56;;;;;;;3.40;0.80;;;-1.00;99.90;;;;;;5065264;28;20159;-68
2024/01/18 06:44:22;;;;;;;5.13;0.95;;;-1.00;99.90;;;;;;5063414;28;20327;-68
2024/01/18 06:46:48;;;;;;;3.87;0.63;;;-1.10;99.90;;;;;;5062645;28;20036;-68
2024/01/18 06:49:14;;;;;;;6.03;0.70;;;-1.10;99.90;;;;;;5047316;28;20059;-67
2024/01/18 06:51:39;;;;;;;2.77;0.80;;;-1.10;99.90;;;;;;5050414;28;20060;-68
2024/01/18 06:54:05;;;;;;;2.30;0.87;;;-1.10;99.90;;;;;;5056345;28;20488;-69
2024/01/18 06:56:30;;;;;;;2.27;0.70;;;-1.10;99.90;;;;;;5051115;28;20048;-71
2024/01/18 06:58:56;;;;;;;5.93;0.83;;;-1.20;99.90;;;;;;5051036;28;20052;-69
2024/01/18 07:01:22;;;;;;;4.07;0.60;;;-1.20;99.90;;;;;;5072186;28;20056;-70
2024/01/18 07:03:49;;;;;;;2.92;1.02;;;-1.20;99.90;;;;;;5072741;28;20060;-73
2024/01/18 07:06:14;;;;;;;;;;;-1.30;99.90;;;;;;5046215;28;20047;-72
2024/01/18 07:08:40;;;;;;;2.58;1.20;;;-1.30;99.90;;;;;;5042439;28;19916;-70
2024/01/18 07:11:06;;;;;;;4.40;1.80;;;-1.30;99.90;;;;;;5049494;28;20043;-68
2024/01/18 07:13:31;;;;;;;3.27;1.10;;;-1.30;99.90;;;;;;5070687;28;20047;-68
2024/01/18 07:15:57;;;;;;;5.27;1.23;;;-1.30;99.90;;;;;;5038897;28;20036;-69
2024/01/18 07:18:23;;;;;;;4.93;0.80;;;-1.20;99.90;;;;;;5036429;28;20127;-71
2024/01/18 07:20:52;;;;;;;2.40;0.70;;;-1.20;99.90;;;;;;5038571;28;20115;-70
2024/01/18 07:23:17;;;;;;;3.38;1.42;;;-1.10;99.90;;;;;;5042335;28;20048;-71
2024/01/18 07:25:43;;;;;;;6.93;1.97;;;-1.10;99.90;;;;;;5055976;28;20047;-77
2024/01/18 07:28:09;;;;;;;5.17;1.80;;;-1.10;99.90;;;;;;5018847;28;20428;-71
2024/01/18 07:30:34;;;;;;;3.90;1.90;;;-1.00;99.90;;;;;;5038625;28;20040;-76
2024/01/18 07:33:00;;;;;;;8.23;2.70;;;-1.00;99.90;;;;;;5047924;28;20406;-77
2024/01/18 07:35:28;;;;;;;6.50;1.53;;;-1.00;99.90;;;;;;5035971;28;20101;-70
2024/01/18 07:37:54;;;;;;;5.00;2.30;;;-1.00;99.90;;;;;;5045286;28;20051;-70
2024/01/18 07:40:20;;;;;;;4.00;0.93;;;-1.00;99.90;;;;;;5044555;28;20036;-74
2024/01/18 07:42:45;;;;;;;2.63;1.13;;;-1.00;99.90;;;;;;5023433;28;20121;-77
2024/01/18 07:45:14;;;;;;;4.73;1.97;;;-1.00;99.90;;;;;;5048022;28;20526;-70
2024/01/18 07:47:40;;;;;;;5.20;1.60;;;-1.00;99.90;;;;;;5074485;28;20043;-70
2024/01/18 07:50:06;;;;;;;8.23;2.85;;;-1.00;99.90;;;;;;5054864;28;20032;-70
2024/01/18 07:52:32;;;;;;;7.88;2.17;;;-1.00;99.90;;;;;;5059179;28;20365;-69
2024/01/18 07:54:57;;;;;;;6.60;2.37;;;-1.00;99.90;;;;;;5043353;28;20444;-74
2024/01/18 07:57:26;;;;;;;4.27;1.80;;;-1.00;99.90;;;;;;5048589;28;20041;-69
2024/01/18 07:59:51;;;;;;;4.28;1.45;;;-1.00;99.90;;;;;;5052715;28;20391;-69
2024/01/18 08:02:17;;;;;;;3.37;1.50;;;-1.00;99.90;;;;;;5066955;28;20481;-68
2024/01/18 08:04:43;;;;;;;3.60;1.20;;;-1.00;99.90;;;;;;5037709;28;20051;-69
2024/01/18 08:07:08;;;;;;;4.63;1.50;;;-1.00;99.90;;;;;;5058064;28;20037;-69
2024/01/18 08:09:35;;;;;;;7.20;1.50;;;-0.90;99.90;;;;;;5044894;28;20040;-69
2024/01/18 08:12:00;;;;;;;6.03;1.45;;;-0.90;99.90;;;;;;5046262;28;20405;-69
2024/01/18 08:14:26;;;;;;;4.87;2.73;;;-0.90;99.90;;;;;;5048843;28;20127;-69
2024/01/18 08:16:51;;;;;;;5.07;1.53;;;-1.00;99.90;;;;;;5049786;28;20044;-69
2024/01/18 08:19:18;;;;;;;3.30;1.40;;;-0.90;99.90;;;;;;5043680;28;20403;-69
2024/01/18 08:21:43;;;;;;;5.25;1.10;;;-0.90;99.90;;;;;;5070812;28;20524;-69
2024/01/18 08:24:09;;;;;;;5.33;0.87;;;-0.90;99.90;;;;;;5051479;28;20216;-69
2024/01/18 08:26:35;;;;;;;3.03;1.20;;;-0.90;99.90;;;;;;5042120;28;20393;-69
2024/01/18 08:29:01;;;;;;;4.03;1.17;;;-0.80;99.90;;;;;;5034944;28;20083;-69
2024/01/18 08:31:27;;;;;;;3.83;1.20;;;-0.80;99.90;;;;;;5046548;28;20071;-69
2024/01/18 08:33:54;;;;;;;4.25;1.00;;;-0.80;99.90;;;;;;5070456;28;20086;-69
2024/01/18 08:36:19;;;;;;;3.33;1.33;;;-0.70;99.90;;;;;;5051280;28;20476;-69
2024/01/18 08:38:45;;;;;;;4.07;1.73;;;-0.70;99.90;;;;;;5056086;28;20136;-69
2024/01/18 08:41:11;;;;;;;4.70;1.30;;;-0.60;99.90;;;;;;5037095;28;20040;-70
2024/01/18 08:43:36;;;;;;;4.23;1.53;;;-0.60;99.90;;;;;;5067474;28;20553;-69
2024/01/18 08:46:06;;;;;;;3.53;1.70;;;-0.50;99.90;;;;;;5031653;28;20052;-69
2024/01/18 08:48:33;;;;;;;4.75;1.15;;;-0.40;99.90;;;;;;5060649;28;20045;-69
2024/01/18 08:50:59;;;;;;;;;;;-0.40;99.90;;;;;;5035906;28;20079;-69
2024/01/18 08:53:24;;;;;;;2.65;0.93;;;-0.30;99.90;;;;;;5051625;28;19996;-69
2024/01/18 08:55:50;;;;;;;4.20;0.80;;;-0.30;99.90;;;;;;5066885;28;20104;-69
2024/01/18 08:58:16;;;;;;;6.40;1.63;;;-0.30;99.90;;;;;;5074174;28;20088;-69
2024/01/18 09:00:42;;;;;;;5.22;1.27;;;-0.20;99.90;;;;;;5071947;28;20115;-69
2024/01/18 09:03:07;;;;;;;5.43;1.63;;;-0.20;99.90;;;;;;5036270;28;20139;-69
2024/01/18 09:05:33;;;;;;;5.50;1.63;;;-0.10;99.90;;;;;;5072464;28;20530;-69
2024/01/18 09:08:00;;;;;;;2.63;1.07;;;-0.10;99.90;;;;;;5067229;28;20039;-69
2024/01/18 09:10:27;;;;;;;6.00;1.20;;;-0.10;99.90;;;;;;5043071;28;20044;-69
2024/01/18 09:12:52;;;;;;;2.30;1.13;;;0.00;99.90;;;;;;5049717;28;20187;-69
2024/01/18 09:15:18;;;;;;;1.57;0.80;;;0.00;99.90;;;;;;5058011;28;20256;-70
2024/01/18 09:17:43;;;;;;;1.30;0.50;;;0.20;99.90;;;;;;5072011;28;20032;-69
2024/01/18 09:20:09;;;;;;;2.83;0.77;;;0.20;99.90;;;;;;5049872;28;20657;-69
2024/01/18 09:22:35;;;;;;;2.03;1.03;;;0.30;99.90;;;;;;5048232;28;20033;-69
2024/01/18 09:25:01;;;;;;;1.63;0.80;;;0.30;99.90;;;;;;5042852;28;20045;-69
2024/01/18 09:27:27;;;;;;;3.05;1.17;;;0.40;99.90;;;;;;5044670;28;20043;-68
2024/01/18 09:29:52;;;;;;;9.20;1.70;;;0.50;99.90;;;;;;5048764;28;20040;-69
2024/01/18 09:32:18;;;;;;;3.40;1.30;;;0.50;99.90;;;;;;5062531;28;20048;-68
2024/01/18 09:34:44;;;;;;;2.10;1.33;;;0.60;99.90;;;;;;5059736;28;20429;-69
2024/01/18 09:37:09;;;;;;;3.87;0.97;;;0.70;99.90;;;;;;5067680;28;20129;-69
2024/01/18 09:39:35;;;;;;;2.20;1.00;;;0.70;99.90;;;;;;5045003;28;20425;-69
2024/01/18 09:42:06;;;;;;;3.13;0.93;;;0.80;99.90;;;;;;5049018;28;20049;-69
2024/01/18 09:44:34;;;;;;;4.07;1.60;;;0.90;99.90;;;;;;5053629;28;20040;-69
2024/01/18 09:47:03;;;;;;;8.68;2.17;;;0.90;99.90;;;;;;5035736;28;20040;-67
2024/01/18 09:49:32;;;;;;;5.47;2.55;;;1.00;99.90;;;;;;5049139;28;20047;-67
2024/01/18 09:51:59;;;;;;;4.18;1.40;;;1.10;99.90;;;;;;5049854;28;20044;-68
2024/01/18 09:54:25;;;;;;;;;;;1.20;99.90;;;;;;5046668;28;20067;-68
2024/01/18 09:56:53;;;;;;;5.18;1.45;;;1.40;99.90;;;;;;5073269;28;19975;-68
2024/01/18 09:59:21;;;;;;;5.45;1.85;;;1.50;99.90;;;;;;5052421;28;20097;-68
2024/01/18 10:01:50;;;;;;;6.20;1.90;;;1.60;99.90;;;;;;5060945;28;20039;-68
2024/01/18 10:04:19;;;;;;;4.88;1.17;;;1.80;99.90;;;;;;5054547;28;20032;-68
2024/01/18 10:06:44;;;;;;;5.22;1.17;;;2.10;99.90;;;;;;5061481;28;20102;-68
2024/01/18 10:09:11;;;;;;;2.80;0.53;;;2.30;99.90;;;;;;5069920;28;20501;-68
2024/01/18 10:11:37;;;;;;;1.83;0.65;;;2.40;99.90;;;;;;5034484;28;20032;-68
2024/01/18 10:14:04;;;;;;;3.22;1.08;;;2.40;99.90;;;;;;5049234;28;20049;-68
2024/01/18 10:16:30;;;;;;;2.22;0.50;;;2.40;99.90;;;;;;5068573;28;20519;-69
2024/01/18 10:18:57;;;;;;;;;;;2.40;99.90;;;;;;5067976;28;20475;-68
2024/01/18 10:21:24;;;;;;;0.45;0.17;;;2.30;99.90;;;;;;5047703;28;19931;-69
2024/01/18 10:23:51;;;;;;;1.75;0.70;;;2.20;99.90;;;;;;5070335;28;20048;-68
2024/01/18 10:26:17;;;;;;;7.20;2.80;;;2.10;99.90;;;;;;5051175;28;20052;-68
2024/01/18 10:28:43;;;;;;;5.25;2.40;;;2.10;99.90;;;;;;5048372;28;20038;-67
2024/01/18 10:31:09;;;;;;;5.53;3.15;;;2.00;99.90;;;;;;5032889;28;20076;-68
2024/01/18 10:33:35;;;;;;;8.47;4.80;;;1.90;99.90;;;;;;5067376;28;20090;-68
2024/01/18 10:36:00;;;;;;;6.00;2.60;;;1.90;99.90;;;;;;5049430;28;20040;-68
2024/01/18 10:38:30;;;;;;;3.33;1.85;;;1.80;99.90;;;;;;5071863;28;20489;-68
2024/01/18 10:40:58;;;;;;;5.05;1.00;;;1.80;99.90;;;;;;5050820;28;20119;-69
2024/01/18 10:43:32;;;;;;;3.05;1.40;;;1.80;99.90;;;;;;5052565;28;20054;-68
2024/01/18 10:45:58;;;;;;;4.55;0.70;;;1.80;99.90;;;;;;5040651;28;20544;-68
2024/01/18 10:48:31;;;;;;;2.05;0.38;;;1.80;99.90;;;;;;5044550;28;20126;-68
2024/01/18 10:50:58;;;;;;;2.58;1.00;;;1.80;99.90;;;;;;5022051;28;20076;-69
2024/01/18 10:53:25;;;;;;;2.38;1.00;;;1.90;99.90;;;;;;5047014;28;20168;-68
2024/01/18 10:55:52;;;;;;;3.78;0.95;;;2.10;99.90;;;;;;5068777;28;20045;-69
2024/01/18 10:58:17;;;;;;;;;;;2.30;99.90;;;;;;5066547;28;20037;-68
2024/01/18 11:00:46;;;;;;;5.03;0.93;;;2.30;99.90;;;;;;5048810;28;19966;-68
2024/01/18 11:03:13;;;;;;;1.98;0.80;;;2.30;99.90;;;;;;5046941;28;20295;-70
2024/01/18 11:05:41;;;;;;;2.05;0.60;;;2.40;99.90;;;;;;5049787;28;20043;-68
2024/01/18 11:08:07;;;;;;;0.85;0.43;;;2.40;99.90;;;;;;5051053;28;20041;-68
2024/01/18 11:10:34;;;;;;;1.85;0.65;;;2.30;99.90;;;;;;5046102;28;20032;-68
2024/01/18 11:13:01;;;;;;;2.22;0.90;;;2.30;99.90;;;;;;5048172;28;20072;-67
2024/01/18 11:15:27;;;;;;;2.10;0.75;;;2.20;99.90;;;;;;5050033;28;20041;-68
2024/01/18 11:17:54;;;;;;;0.77;0.60;;;2.10;99.90;;;;;;5062921;28;20052;-76
2024/01/18 11:20:21;;;;;;;3.90;0.82;;;2.10;99.90;;;;;;5032953;28;20044;-69
2024/01/18 11:22:47;;;;;;;5.50;1.48;;;2.00;99.90;;;;;;5037793;28;20524;-71
2024/01/18 11:25:18;;;;;;;3.28;1.63;;;1.90;99.90;;;;;;5051325;28;20213;-69
2024/01/18 11:27:43;;;;;;;3.50;1.65;;;1.90;99.90;;;;;;5032121;28;20039;-69
2024/01/18 11:30:34;;;;;;;3.73;0.93;;;1.80;99.90;;;;;;5030284;28;20048;-69
2024/01/18 11:33:01;;;;;;;5.88;1.05;;;1.80;99.90;;;;;;5041660;28;20053;-69
2024/01/18 11:35:26;;;;;;;2.22;0.65;;;1.80;99.90;;;;;;5046677;28;20036;-68
2024/01/18 11:38:12;;;;;;;3.80;1.73;;;1.70;99.90;;;;;;5050283;28;20113;-69
2024/01/18 11:40:38;;;;;;;2.15;0.80;;;1.60;99.90;;;;;;5048641;28;20089;-69
2024/01/18 11:43:03;;;;;;;0.80;0.70;;;1.60;99.90;;;;;;5046071;28;20123;-69
2024/01/18 11:45:30;;;;;;;2.00;0.97;;;1.70;99.90;;;;;;5048606;28;20368;-68
2024/01/18 11:47:55;;;;;;;2.00;0.70;;;1.80;99.90;;;;;;5063315;28;20036;-68
2024/01/18 11:50:21;;;;;;;2.33;0.60;;;2.00;99.90;;;;;;5058890;28;20179;-70
2024/01/18 11:52:49;;;;;;;2.80;0.40;;;2.10;99.90;;;;;;5063842;28;20394;-71
2024/01/18 11:55:17;;;;;;;1.58;0.35;;;2.20;99.90;;;;;;5047465;28;20079;-71
2024/01/18 11:57:43;;;;;;;2.45;0.63;;;2.30;99.90;;;;;;5051314;28;20499;-71
2024/01/18 12:00:10;;;;;;;1.33;0.60;;;2.60;99.90;;;;;;5031088;28;20049;-72
2024/01/18 12:02:36;;;;;;;1.60;0.40;;;2.80;99.90;;;;;;5050102;28;20641;-71
2024/01/18 12:05:04;;;;;;;4.03;0.40;;;2.90;99.90;;;;;;5046855;28;20124;-72
2024/01/18 12:07:31;;;;;;;1.27;0.40;;;3.00;99.90;;;;;;5063780;28;20044;-72
2024/01/18 12:09:57;;;;;;;;;;;2.90;99.90;;;;;;5047269;28;20044;-71
2024/01/18 12:12:24;;;;;;;1.30;0.68;;;2.80;99.90;;;;;;5021001;28;19935;-71
2024/01/18 12:14:49;;;;;;;7.15;1.15;;;2.80;99.90;;;;;;5061863;28;20045;-71
2024/01/18 12:17:16;;;;;;;1.63;0.90;;;2.80;99.90;;;;;;5041935;28;20067;-71
2024/01/18 12:19:43;;;;;;;;;;;3.00;99.90;;;;;;5033748;28;20353;-71
2024/01/18 12:22:11;;;;;;;4.10;0.50;;;3.10;99.90;;;;;;5046738;28;20049;-71
2024/01/18 12:24:39;;;;;;;2.53;0.63;;;3.20;99.90;;;;;;5047069;28;20047;-72
2024/01/18 12:27:05;;;;;;;2.55;0.60;;;3.30;99.90;;;;;;5054460;28;20048;-70
2024/01/18 12:29:35;;;;;;;;;;;3.40;99.90;;;;;;5061426;28;20099;-71
2024/01/18 12:32:02;;;;;;;4.45;0.55;;;3.50;99.90;;;;;;5050869;28;19927;-71
2024/01/18 12:34:28;;;;;;;;;;;3.60;99.90;;;;;;5064833;28;20214;-70
2024/01/18 12:36:54;;;;;;;1.05;0.38;;;3.70;99.90;;;;;;5071494;28;19952;-70
2024/01/18 12:39:20;;;;;;;2.33;0.98;;;3.70;99.90;;;;;;5060469;28;20180;-71
2024/01/18 12:41:49;;;;;;;2.67;0.73;;;3.80;99.90;;;;;;5051513;28;20651;-72
2024/01/18 12:44:15;;;;;;;4.72;0.77;;;3.90;99.90;;;;;;5036696;28;20076;-72
2024/01/18 12:46:41;;;;;;;2.23;0.57;;;4.00;99.90;;;;;;5067482;28;20119;-72
2024/01/18 12:49:07;;;;;;;5.30;0.60;;;4.10;99.90;;;;;;5047458;28;20040;-72